sensor_id;sensor_type;location;lat;lon;timestamp;P1;durP1;ratioP1;P2;durP2;ratioP2
16512;SDS011;8369;48.030;11.598;2024-01-30T00:00:13;4.40;;;2.57;;
16512;SDS011;8369;48.030;11.598;2024-01-30T00:02:51;3.63;;;2.50;;
16512;SDS011;8369;48.030;11.598;2024-01-30T00:05:24;4.80;;;2.70;;
16512;SDS011;8369;48.030;11.598;2024-01-30T00:07:53;3.33;;;2.50;;
16512;SDS011;8369;48.030;11.598;2024-01-30T00:10:21;2.97;;;2.37;;
16512;SDS011;8369;48.030;11.598;2024-01-30T00:12:50;7.17;;;2.47;;
16512;SDS011;8369;48.030;11.598;2024-01-30T00:15:17;3.83;;;2.50;;
16512;SDS011;8369;48.030;11.598;2024-01-30T00:17:43;3.70;;;2.60;;
16512;SDS011;8369;48.030;11.598;2024-01-30T00:20:10;4.20;;;2.50;;
16512;SDS011;8369;48.030;11.598;2024-01-30T00:22:36;3.10;;;2.33;;
16512;SDS011;8369;48.030;11.598;2024-01-30T00:25:01;3.57;;;2.40;;
16512;SDS011;8369;48.030;11.598;2024-01-30T00:27:27;3.40;;;2.63;;
16512;SDS011;8369;48.030;11.598;2024-01-30T00:29:56;3.90;;;2.47;;
16512;SDS011;8369;48.030;11.598;2024-01-30T00:32:22;3.60;;;2.43;;
16512;SDS011;8369;48.030;11.598;2024-01-30T00:34:48;5.97;;;3.00;;
16512;SDS011;8369;48.030;11.598;2024-01-30T00:37:15;4.00;;;2.67;;
16512;SDS011;8369;48.030;11.598;2024-01-30T00:39:41;4.20;;;2.70;;
16512;SDS011;8369;48.030;11.598;2024-01-30T00:42:10;5.50;;;2.80;;
16512;SDS011;8369;48.030;11.598;2024-01-30T00:44:36;4.93;;;3.10;;
16512;SDS011;8369;48.030;11.598;2024-01-30T00:47:04;6.43;;;3.40;;
16512;SDS011;8369;48.030;11.598;2024-01-30T00:49:30;9.43;;;3.80;;
16512;SDS011;8369;48.030;11.598;2024-01-30T00:51:57;8.87;;;3.90;;
16512;SDS011;8369;48.030;11.598;2024-01-30T00:54:23;6.40;;;3.20;;
16512;SDS011;8369;48.030;11.598;2024-01-30T00:56:49;8.30;;;4.00;;
16512;SDS011;8369;48.030;11.598;2024-01-30T00:59:15;7.30;;;3.77;;
16512;SDS011;8369;48.030;11.598;2024-01-30T01:01:42;11.10;;;4.60;;
16512;SDS011;8369;48.030;11.598;2024-01-30T01:04:08;8.80;;;4.87;;
16512;SDS011;8369;48.030;11.598;2024-01-30T01:06:34;13.40;;;4.90;;
16512;SDS011;8369;48.030;11.598;2024-01-30T01:09:00;11.60;;;5.30;;
16512;SDS011;8369;48.030;11.598;2024-01-30T01:11:25;12.57;;;6.03;;
16512;SDS011;8369;48.030;11.598;2024-01-30T01:13:51;12.17;;;5.40;;
16512;SDS011;8369;48.030;11.598;2024-01-30T01:16:17;12.47;;;5.50;;
16512;SDS011;8369;48.030;11.598;2024-01-30T01:18:45;8.33;;;4.53;;
16512;SDS011;8369;48.030;11.598;2024-01-30T01:21:11;10.83;;;4.53;;
16512;SDS011;8369;48.030;11.598;2024-01-30T01:23:37;8.63;;;4.20;;
16512;SDS011;8369;48.030;11.598;2024-01-30T01:26:04;8.57;;;4.40;;
16512;SDS011;8369;48.030;11.598;2024-01-30T01:28:30;6.80;;;4.20;;
16512;SDS011;8369;48.030;11.598;2024-01-30T01:31:05;7.13;;;3.80;;
16512;SDS011;8369;48.030;11.598;2024-01-30T01:33:34;8.50;;;4.30;;
16512;SDS011;8369;48.030;11.598;2024-01-30T01:36:02;6.60;;;3.80;;
16512;SDS011;8369;48.030;11.598;2024-01-30T01:38:28;4.73;;;3.40;;
16512;SDS011;8369;48.030;11.598;2024-01-30T01:40:54;7.97;;;3.67;;
16512;SDS011;8369;48.030;11.598;2024-01-30T01:43:25;4.90;;;3.37;;
16512;SDS011;8369;48.030;11.598;2024-01-30T01:45:51;5.43;;;3.23;;
16512;SDS011;8369;48.030;11.598;2024-01-30T01:48:17;5.93;;;3.70;;
16512;SDS011;8369;48.030;11.598;2024-01-30T01:50:43;5.00;;;3.40;;
16512;SDS011;8369;48.030;11.598;2024-01-30T01:53:09;4.30;;;3.00;;
16512;SDS011;8369;48.030;11.598;2024-01-30T01:55:35;6.03;;;3.63;;
16512;SDS011;8369;48.030;11.598;2024-01-30T01:58:01;5.97;;;4.00;;
16512;SDS011;8369;48.030;11.598;2024-01-30T02:00:27;6.80;;;4.13;;
16512;SDS011;8369;48.030;11.598;2024-01-30T02:02:54;7.20;;;4.53;;
16512;SDS011;8369;48.030;11.598;2024-01-30T02:05:23;7.33;;;4.33;;
16512;SDS011;8369;48.030;11.598;2024-01-30T02:07:50;9.07;;;4.40;;
16512;SDS011;8369;48.030;11.598;2024-01-30T02:10:17;8.83;;;4.70;;
16512;SDS011;8369;48.030;11.598;2024-01-30T02:12:46;10.00;;;5.13;;
16512;SDS011;8369;48.030;11.598;2024-01-30T02:15:13;8.53;;;4.70;;
16512;SDS011;8369;48.030;11.598;2024-01-30T02:17:42;9.57;;;5.03;;
16512;SDS011;8369;48.030;11.598;2024-01-30T02:20:08;8.10;;;4.40;;
16512;SDS011;8369;48.030;11.598;2024-01-30T02:22:34;7.23;;;4.13;;
16512;SDS011;8369;48.030;11.598;2024-01-30T02:25:02;6.17;;;3.70;;
16512;SDS011;8369;48.030;11.598;2024-01-30T02:27:31;6.80;;;4.00;;
16512;SDS011;8369;48.030;11.598;2024-01-30T02:30:00;7.33;;;4.60;;
16512;SDS011;8369;48.030;11.598;2024-01-30T02:32:26;11.30;;;5.23;;
16512;SDS011;8369;48.030;11.598;2024-01-30T02:34:54;11.27;;;4.87;;
16512;SDS011;8369;48.030;11.598;2024-01-30T02:37:23;8.37;;;4.73;;
16512;SDS011;8369;48.030;11.598;2024-01-30T02:39:49;9.17;;;4.70;;
16512;SDS011;8369;48.030;11.598;2024-01-30T02:42:15;8.73;;;4.30;;
16512;SDS011;8369;48.030;11.598;2024-01-30T02:44:41;7.53;;;4.13;;
16512;SDS011;8369;48.030;11.598;2024-01-30T02:47:07;7.47;;;4.67;;
16512;SDS011;8369;48.030;11.598;2024-01-30T02:49:33;6.27;;;4.17;;
16512;SDS011;8369;48.030;11.598;2024-01-30T02:51:59;5.27;;;3.83;;
16512;SDS011;8369;48.030;11.598;2024-01-30T02:54:28;6.07;;;3.60;;
16512;SDS011;8369;48.030;11.598;2024-01-30T02:56:56;6.87;;;3.57;;
16512;SDS011;8369;48.030;11.598;2024-01-30T02:59:25;6.43;;;4.70;;
16512;SDS011;8369;48.030;11.598;2024-01-30T03:01:51;7.33;;;3.67;;
16512;SDS011;8369;48.030;11.598;2024-01-30T03:04:20;5.43;;;3.53;;
16512;SDS011;8369;48.030;11.598;2024-01-30T03:06:48;5.40;;;3.17;;
16512;SDS011;8369;48.030;11.598;2024-01-30T03:09:16;4.47;;;3.20;;
16512;SDS011;8369;48.030;11.598;2024-01-30T03:11:42;4.57;;;3.00;;
16512;SDS011;8369;48.030;11.598;2024-01-30T03:14:13;3.90;;;2.90;;
16512;SDS011;8369;48.030;11.598;2024-01-30T03:16:39;4.07;;;2.87;;
16512;SDS011;8369;48.030;11.598;2024-01-30T03:19:08;3.37;;;2.80;;
16512;SDS011;8369;48.030;11.598;2024-01-30T03:21:51;3.77;;;2.70;;
16512;SDS011;8369;48.030;11.598;2024-01-30T03:24:17;4.03;;;2.87;;
16512;SDS011;8369;48.030;11.598;2024-01-30T03:26:43;3.37;;;2.90;;
16512;SDS011;8369;48.030;11.598;2024-01-30T03:29:13;3.40;;;2.43;;
16512;SDS011;8369;48.030;11.598;2024-01-30T03:31:44;5.33;;;3.50;;
16512;SDS011;8369;48.030;11.598;2024-01-30T03:34:10;4.57;;;3.30;;
16512;SDS011;8369;48.030;11.598;2024-01-30T03:36:36;5.13;;;3.67;;
16512;SDS011;8369;48.030;11.598;2024-01-30T03:39:05;4.17;;;3.00;;
16512;SDS011;8369;48.030;11.598;2024-01-30T03:41:33;3.37;;;2.53;;
16512;SDS011;8369;48.030;11.598;2024-01-30T03:43:59;4.10;;;2.73;;
16512;SDS011;8369;48.030;11.598;2024-01-30T03:46:25;3.23;;;2.60;;
16512;SDS011;8369;48.030;11.598;2024-01-30T03:48:51;3.93;;;2.97;;
16512;SDS011;8369;48.030;11.598;2024-01-30T03:51:20;3.40;;;2.70;;
16512;SDS011;8369;48.030;11.598;2024-01-30T03:53:45;6.37;;;2.60;;
16512;SDS011;8369;48.030;11.598;2024-01-30T03:56:11;4.50;;;2.90;;
16512;SDS011;8369;48.030;11.598;2024-01-30T03:58:40;3.07;;;2.70;;
16512;SDS011;8369;48.030;11.598;2024-01-30T04:01:07;4.60;;;2.90;;
16512;SDS011;8369;48.030;11.598;2024-01-30T04:03:33;5.53;;;3.00;;
16512;SDS011;8369;48.030;11.598;2024-01-30T04:05:59;5.73;;;2.53;;
16512;SDS011;8369;48.030;11.598;2024-01-30T04:08:28;6.00;;;3.13;;
16512;SDS011;8369;48.030;11.598;2024-01-30T04:10:54;4.20;;;2.80;;
16512;SDS011;8369;48.030;11.598;2024-01-30T04:13:21;4.40;;;2.80;;
16512;SDS011;8369;48.030;11.598;2024-01-30T04:15:47;3.80;;;2.40;;
16512;SDS011;8369;48.030;11.598;2024-01-30T04:18:15;3.27;;;2.37;;
16512;SDS011;8369;48.030;11.598;2024-01-30T04:20:41;4.67;;;2.97;;
16512;SDS011;8369;48.030;11.598;2024-01-30T04:23:09;2.80;;;2.20;;
16512;SDS011;8369;48.030;11.598;2024-01-30T04:25:35;4.63;;;2.53;;
16512;SDS011;8369;48.030;11.598;2024-01-30T04:28:01;3.37;;;2.40;;
16512;SDS011;8369;48.030;11.598;2024-01-30T04:30:27;3.90;;;2.80;;
16512;SDS011;8369;48.030;11.598;2024-01-30T04:32:53;6.10;;;2.60;;
16512;SDS011;8369;48.030;11.598;2024-01-30T04:35:19;3.37;;;2.63;;
16512;SDS011;8369;48.030;11.598;2024-01-30T04:37:48;5.20;;;3.20;;
16512;SDS011;8369;48.030;11.598;2024-01-30T04:40:14;3.03;;;2.53;;
16512;SDS011;8369;48.030;11.598;2024-01-30T04:42:40;4.87;;;2.83;;
16512;SDS011;8369;48.030;11.598;2024-01-30T04:45:06;5.10;;;2.50;;
16512;SDS011;8369;48.030;11.598;2024-01-30T04:47:32;4.00;;;2.63;;
16512;SDS011;8369;48.030;11.598;2024-01-30T04:49:58;4.93;;;2.97;;
16512;SDS011;8369;48.030;11.598;2024-01-30T04:52:24;4.63;;;3.20;;
16512;SDS011;8369;48.030;11.598;2024-01-30T04:54:50;6.00;;;3.13;;
16512;SDS011;8369;48.030;11.598;2024-01-30T04:57:16;6.33;;;3.13;;
16512;SDS011;8369;48.030;11.598;2024-01-30T04:59:42;5.20;;;3.20;;
16512;SDS011;8369;48.030;11.598;2024-01-30T05:02:08;12.80;;;3.40;;
16512;SDS011;8369;48.030;11.598;2024-01-30T05:04:34;5.03;;;3.30;;
16512;SDS011;8369;48.030;11.598;2024-01-30T05:07:05;5.57;;;3.47;;
16512;SDS011;8369;48.030;11.598;2024-01-30T05:09:34;4.30;;;3.13;;
16512;SDS011;8369;48.030;11.598;2024-01-30T05:12:03;3.73;;;2.93;;
16512;SDS011;8369;48.030;11.598;2024-01-30T05:14:29;5.40;;;3.30;;
16512;SDS011;8369;48.030;11.598;2024-01-30T05:16:55;5.13;;;3.10;;
16512;SDS011;8369;48.030;11.598;2024-01-30T05:19:20;4.33;;;2.90;;
16512;SDS011;8369;48.030;11.598;2024-01-30T05:21:48;5.37;;;2.63;;
16512;SDS011;8369;48.030;11.598;2024-01-30T05:24:17;5.07;;;3.17;;
16512;SDS011;8369;48.030;11.598;2024-01-30T05:26:44;4.17;;;2.73;;
16512;SDS011;8369;48.030;11.598;2024-01-30T05:29:13;4.47;;;2.83;;
16512;SDS011;8369;48.030;11.598;2024-01-30T05:31:39;4.07;;;2.80;;
16512;SDS011;8369;48.030;11.598;2024-01-30T05:34:04;3.63;;;2.73;;
16512;SDS011;8369;48.030;11.598;2024-01-30T05:36:31;3.40;;;2.50;;
16512;SDS011;8369;48.030;11.598;2024-01-30T05:38:57;2.70;;;2.23;;
16512;SDS011;8369;48.030;11.598;2024-01-30T05:41:23;3.80;;;2.40;;
16512;SDS011;8369;48.030;11.598;2024-01-30T05:43:49;3.13;;;2.40;;
16512;SDS011;8369;48.030;11.598;2024-01-30T05:46:18;2.80;;;2.27;;
16512;SDS011;8369;48.030;11.598;2024-01-30T05:48:45;4.70;;;2.53;;
16512;SDS011;8369;48.030;11.598;2024-01-30T05:51:11;3.20;;;2.10;;
16512;SDS011;8369;48.030;11.598;2024-01-30T05:53:39;3.33;;;2.33;;
16512;SDS011;8369;48.030;11.598;2024-01-30T05:56:08;2.97;;;2.00;;
16512;SDS011;8369;48.030;11.598;2024-01-30T05:58:34;4.27;;;2.20;;
16512;SDS011;8369;48.030;11.598;2024-01-30T06:01:00;6.60;;;3.33;;
16512;SDS011;8369;48.030;11.598;2024-01-30T06:03:28;3.10;;;2.60;;
16512;SDS011;8369;48.030;11.598;2024-01-30T06:05:54;3.97;;;2.10;;
16512;SDS011;8369;48.030;11.598;2024-01-30T06:08:20;3.37;;;2.20;;
16512;SDS011;8369;48.030;11.598;2024-01-30T06:10:49;3.80;;;2.00;;
16512;SDS011;8369;48.030;11.598;2024-01-30T06:13:15;3.40;;;2.43;;
16512;SDS011;8369;48.030;11.598;2024-01-30T06:15:50;4.20;;;2.60;;
16512;SDS011;8369;48.030;11.598;2024-01-30T06:18:16;2.87;;;2.30;;
16512;SDS011;8369;48.030;11.598;2024-01-30T06:20:41;2.90;;;2.10;;
16512;SDS011;8369;48.030;11.598;2024-01-30T06:23:25;2.43;;;2.07;;
16512;SDS011;8369;48.030;11.598;2024-01-30T06:25:51;4.03;;;2.30;;
16512;SDS011;8369;48.030;11.598;2024-01-30T06:28:19;4.57;;;2.70;;
16512;SDS011;8369;48.030;11.598;2024-01-30T06:30:45;3.20;;;2.00;;
16512;SDS011;8369;48.030;11.598;2024-01-30T06:33:14;3.20;;;2.07;;
16512;SDS011;8369;48.030;11.598;2024-01-30T06:35:40;2.77;;;2.13;;
16512;SDS011;8369;48.030;11.598;2024-01-30T06:38:06;3.23;;;2.17;;
16512;SDS011;8369;48.030;11.598;2024-01-30T06:40:35;3.43;;;2.13;;
16512;SDS011;8369;48.030;11.598;2024-01-30T06:43:01;5.30;;;2.20;;
16512;SDS011;8369;48.030;11.598;2024-01-30T06:45:27;3.23;;;2.00;;
16512;SDS011;8369;48.030;11.598;2024-01-30T06:47:53;3.40;;;2.27;;
16512;SDS011;8369;48.030;11.598;2024-01-30T06:50:19;2.57;;;2.13;;
16512;SDS011;8369;48.030;11.598;2024-01-30T06:52:45;3.73;;;2.00;;
16512;SDS011;8369;48.030;11.598;2024-01-30T06:55:11;5.07;;;2.23;;
16512;SDS011;8369;48.030;11.598;2024-01-30T06:57:37;3.83;;;2.47;;
16512;SDS011;8369;48.030;11.598;2024-01-30T07:00:04;2.10;;;1.90;;
16512;SDS011;8369;48.030;11.598;2024-01-30T07:02:31;3.43;;;2.00;;
16512;SDS011;8369;48.030;11.598;2024-01-30T07:04:59;3.10;;;2.10;;
16512;SDS011;8369;48.030;11.598;2024-01-30T07:07:26;3.40;;;2.20;;
16512;SDS011;8369;48.030;11.598;2024-01-30T07:09:57;2.70;;;2.10;;
16512;SDS011;8369;48.030;11.598;2024-01-30T07:12:24;6.10;;;2.30;;
16512;SDS011;8369;48.030;11.598;2024-01-30T07:14:51;2.53;;;2.00;;
16512;SDS011;8369;48.030;11.598;2024-01-30T07:17:19;3.20;;;2.10;;
16512;SDS011;8369;48.030;11.598;2024-01-30T07:19:46;2.20;;;2.00;;
16512;SDS011;8369;48.030;11.598;2024-01-30T07:22:14;2.23;;;1.90;;
16512;SDS011;8369;48.030;11.598;2024-01-30T07:24:42;2.20;;;2.00;;
16512;SDS011;8369;48.030;11.598;2024-01-30T07:27:17;4.40;;;2.07;;
16512;SDS011;8369;48.030;11.598;2024-01-30T07:29:45;6.20;;;2.50;;
16512;SDS011;8369;48.030;11.598;2024-01-30T07:32:12;4.47;;;2.70;;
16512;SDS011;8369;48.030;11.598;2024-01-30T07:34:40;5.83;;;2.13;;
16512;SDS011;8369;48.030;11.598;2024-01-30T07:37:08;3.03;;;1.97;;
16512;SDS011;8369;48.030;11.598;2024-01-30T07:39:36;8.30;;;2.43;;
16512;SDS011;8369;48.030;11.598;2024-01-30T07:42:04;3.57;;;2.27;;
16512;SDS011;8369;48.030;11.598;2024-01-30T07:44:32;3.97;;;2.20;;
16512;SDS011;8369;48.030;11.598;2024-01-30T07:46:59;2.40;;;2.10;;
16512;SDS011;8369;48.030;11.598;2024-01-30T07:49:25;3.23;;;2.13;;
16512;SDS011;8369;48.030;11.598;2024-01-30T07:51:53;3.37;;;2.20;;
16512;SDS011;8369;48.030;11.598;2024-01-30T07:54:22;6.73;;;2.43;;
16512;SDS011;8369;48.030;11.598;2024-01-30T07:56:50;4.07;;;2.30;;
16512;SDS011;8369;48.030;11.598;2024-01-30T07:59:16;7.07;;;2.47;;
16512;SDS011;8369;48.030;11.598;2024-01-30T08:01:44;15.33;;;2.37;;
16512;SDS011;8369;48.030;11.598;2024-01-30T08:04:13;4.00;;;2.10;;
16512;SDS011;8369;48.030;11.598;2024-01-30T08:06:39;4.13;;;2.30;;
16512;SDS011;8369;48.030;11.598;2024-01-30T08:09:06;3.43;;;2.20;;
16512;SDS011;8369;48.030;11.598;2024-01-30T08:11:34;5.57;;;2.47;;
16512;SDS011;8369;48.030;11.598;2024-01-30T08:14:01;4.30;;;2.30;;
16512;SDS011;8369;48.030;11.598;2024-01-30T08:16:27;4.50;;;2.50;;
16512;SDS011;8369;48.030;11.598;2024-01-30T08:18:53;3.37;;;2.30;;
16512;SDS011;8369;48.030;11.598;2024-01-30T08:21:21;3.83;;;2.87;;
16512;SDS011;8369;48.030;11.598;2024-01-30T08:23:48;3.97;;;2.63;;
16512;SDS011;8369;48.030;11.598;2024-01-30T08:26:17;4.03;;;2.30;;
16512;SDS011;8369;48.030;11.598;2024-01-30T08:28:44;6.67;;;2.30;;
16512;SDS011;8369;48.030;11.598;2024-01-30T08:31:10;3.87;;;2.30;;
16512;SDS011;8369;48.030;11.598;2024-01-30T08:33:39;3.43;;;2.07;;
16512;SDS011;8369;48.030;11.598;2024-01-30T08:36:05;2.97;;;2.00;;
16512;SDS011;8369;48.030;11.598;2024-01-30T08:38:32;6.43;;;2.20;;
16512;SDS011;8369;48.030;11.598;2024-01-30T08:40:59;3.20;;;2.10;;
16512;SDS011;8369;48.030;11.598;2024-01-30T08:43:26;8.53;;;1.90;;
16512;SDS011;8369;48.030;11.598;2024-01-30T08:45:52;2.63;;;2.30;;
16512;SDS011;8369;48.030;11.598;2024-01-30T08:48:19;4.33;;;2.43;;
16512;SDS011;8369;48.030;11.598;2024-01-30T08:50:46;2.47;;;2.03;;
16512;SDS011;8369;48.030;11.598;2024-01-30T08:53:13;6.93;;;2.30;;
16512;SDS011;8369;48.030;11.598;2024-01-30T08:55:40;5.43;;;2.30;;
16512;SDS011;8369;48.030;11.598;2024-01-30T08:58:07;4.83;;;2.67;;
16512;SDS011;8369;48.030;11.598;2024-01-30T09:00:33;2.90;;;2.10;;
16512;SDS011;8369;48.030;11.598;2024-01-30T09:03:00;2.67;;;2.00;;
16512;SDS011;8369;48.030;11.598;2024-01-30T09:05:27;4.53;;;2.33;;
16512;SDS011;8369;48.030;11.598;2024-01-30T09:08:03;2.80;;;2.20;;
16512;SDS011;8369;48.030;11.598;2024-01-30T09:10:40;4.47;;;2.57;;
16512;SDS011;8369;48.030;11.598;2024-01-30T09:13:07;6.60;;;3.73;;
16512;SDS011;8369;48.030;11.598;2024-01-30T09:15:33;5.83;;;3.70;;
16512;SDS011;8369;48.030;11.598;2024-01-30T09:18:04;5.83;;;3.53;;
16512;SDS011;8369;48.030;11.598;2024-01-30T09:20:33;6.20;;;4.07;;
16512;SDS011;8369;48.030;11.598;2024-01-30T09:23:00;5.80;;;3.50;;
16512;SDS011;8369;48.030;11.598;2024-01-30T09:25:27;5.03;;;2.90;;
16512;SDS011;8369;48.030;11.598;2024-01-30T09:27:54;5.13;;;3.30;;
16512;SDS011;8369;48.030;11.598;2024-01-30T09:30:20;4.60;;;3.30;;
16512;SDS011;8369;48.030;11.598;2024-01-30T09:32:47;6.33;;;3.67;;
16512;SDS011;8369;48.030;11.598;2024-01-30T09:35:14;8.90;;;4.50;;
16512;SDS011;8369;48.030;11.598;2024-01-30T09:37:41;6.27;;;4.43;;
16512;SDS011;8369;48.030;11.598;2024-01-30T09:40:07;7.33;;;3.90;;
16512;SDS011;8369;48.030;11.598;2024-01-30T09:42:35;4.90;;;3.60;;
16512;SDS011;8369;48.030;11.598;2024-01-30T09:45:06;4.57;;;2.90;;
16512;SDS011;8369;48.030;11.598;2024-01-30T09:47:43;5.30;;;3.40;;
16512;SDS011;8369;48.030;11.598;2024-01-30T09:50:11;4.70;;;2.77;;
16512;SDS011;8369;48.030;11.598;2024-01-30T09:52:39;3.67;;;2.53;;
16512;SDS011;8369;48.030;11.598;2024-01-30T09:55:07;2.13;;;1.60;;
16512;SDS011;8369;48.030;11.598;2024-01-30T09:57:34;2.03;;;1.67;;
16512;SDS011;8369;48.030;11.598;2024-01-30T10:00:05;3.00;;;1.90;;
16512;SDS011;8369;48.030;11.598;2024-01-30T10:02:35;1.97;;;1.60;;
16512;SDS011;8369;48.030;11.598;2024-01-30T10:05:03;2.60;;;1.60;;
16512;SDS011;8369;48.030;11.598;2024-01-30T10:07:30;1.77;;;1.50;;
16512;SDS011;8369;48.030;11.598;2024-01-30T10:09:57;1.67;;;1.30;;
16512;SDS011;8369;48.030;11.598;2024-01-30T10:12:25;1.67;;;1.57;;
16512;SDS011;8369;48.030;11.598;2024-01-30T10:14:52;1.90;;;1.70;;
16512;SDS011;8369;48.030;11.598;2024-01-30T10:17:19;4.50;;;1.90;;
16512;SDS011;8369;48.030;11.598;2024-01-30T10:19:47;2.30;;;1.40;;
16512;SDS011;8369;48.030;11.598;2024-01-30T10:22:13;4.00;;;1.53;;
16512;SDS011;8369;48.030;11.598;2024-01-30T10:24:40;2.07;;;1.60;;
16512;SDS011;8369;48.030;11.598;2024-01-30T10:27:07;1.90;;;1.50;;
16512;SDS011;8369;48.030;11.598;2024-01-30T10:29:34;3.93;;;1.50;;
16512;SDS011;8369;48.030;11.598;2024-01-30T10:32:03;1.77;;;1.63;;
16512;SDS011;8369;48.030;11.598;2024-01-30T10:34:31;7.43;;;1.50;;
16512;SDS011;8369;48.030;11.598;2024-01-30T10:37:03;5.83;;;1.70;;
16512;SDS011;8369;48.030;11.598;2024-01-30T10:39:44;4.43;;;1.43;;
16512;SDS011;8369;48.030;11.598;2024-01-30T10:42:15;2.03;;;1.70;;
16512;SDS011;8369;48.030;11.598;2024-01-30T10:47:15;3.93;;;1.33;;
16512;SDS011;8369;48.030;11.598;2024-01-30T10:49:44;2.77;;;1.40;;
16512;SDS011;8369;48.030;11.598;2024-01-30T10:52:12;4.23;;;1.57;;
16512;SDS011;8369;48.030;11.598;2024-01-30T10:54:40;1.80;;;1.60;;
16512;SDS011;8369;48.030;11.598;2024-01-30T10:57:10;6.83;;;1.80;;
16512;SDS011;8369;48.030;11.598;2024-01-30T10:59:38;2.07;;;1.60;;
16512;SDS011;8369;48.030;11.598;2024-01-30T11:02:05;3.33;;;1.60;;
16512;SDS011;8369;48.030;11.598;2024-01-30T11:04:36;3.13;;;1.63;;
16512;SDS011;8369;48.030;11.598;2024-01-30T11:07:16;3.63;;;1.67;;
16512;SDS011;8369;48.030;11.598;2024-01-30T11:09:53;6.23;;;2.20;;
16512;SDS011;8369;48.030;11.598;2024-01-30T11:12:31;9.23;;;3.23;;
16512;SDS011;8369;48.030;11.598;2024-01-30T11:15:02;2.93;;;1.73;;
16512;SDS011;8369;48.030;11.598;2024-01-30T11:17:43;3.83;;;2.70;;
16512;SDS011;8369;48.030;11.598;2024-01-30T11:20:25;5.30;;;2.30;;
16512;SDS011;8369;48.030;11.598;2024-01-30T11:22:54;4.27;;;2.20;;
16512;SDS011;8369;48.030;11.598;2024-01-30T11:25:23;8.73;;;1.90;;
16512;SDS011;8369;48.030;11.598;2024-01-30T11:27:53;8.77;;;1.73;;
16512;SDS011;8369;48.030;11.598;2024-01-30T11:30:21;3.50;;;1.60;;
16512;SDS011;8369;48.030;11.598;2024-01-30T11:33:02;3.30;;;1.93;;
16512;SDS011;8369;48.030;11.598;2024-01-30T11:35:39;2.33;;;1.80;;
16512;SDS011;8369;48.030;11.598;2024-01-30T11:38:10;4.63;;;2.17;;
16512;SDS011;8369;48.030;11.598;2024-01-30T11:40:43;2.10;;;1.60;;
16512;SDS011;8369;48.030;11.598;2024-01-30T11:43:16;5.27;;;2.43;;
16512;SDS011;8369;48.030;11.598;2024-01-30T11:45:44;14.20;;;7.77;;
16512;SDS011;8369;48.030;11.598;2024-01-30T11:48:15;6.33;;;2.80;;
16512;SDS011;8369;48.030;11.598;2024-01-30T11:50:49;5.30;;;3.60;;
16512;SDS011;8369;48.030;11.598;2024-01-30T11:53:18;3.63;;;2.00;;
16512;SDS011;8369;48.030;11.598;2024-01-30T11:55:52;8.57;;;2.53;;
16512;SDS011;8369;48.030;11.598;2024-01-30T11:58:20;2.67;;;2.10;;
16512;SDS011;8369;48.030;11.598;2024-01-30T12:00:52;6.30;;;2.53;;
16512;SDS011;8369;48.030;11.598;2024-01-30T12:03:25;8.03;;;2.17;;
16512;SDS011;8369;48.030;11.598;2024-01-30T12:05:59;8.10;;;2.40;;
16512;SDS011;8369;48.030;11.598;2024-01-30T12:08:29;3.60;;;2.00;;
16512;SDS011;8369;48.030;11.598;2024-01-30T12:10:57;5.27;;;1.70;;
16512;SDS011;8369;48.030;11.598;2024-01-30T12:13:31;4.03;;;1.97;;
16512;SDS011;8369;48.030;11.598;2024-01-30T12:16:01;4.93;;;1.73;;
16512;SDS011;8369;48.030;11.598;2024-01-30T12:18:27;4.00;;;2.20;;
16512;SDS011;8369;48.030;11.598;2024-01-30T12:20:59;6.93;;;2.10;;
16512;SDS011;8369;48.030;11.598;2024-01-30T12:23:29;2.63;;;1.67;;
16512;SDS011;8369;48.030;11.598;2024-01-30T12:25:57;4.40;;;2.13;;
16512;SDS011;8369;48.030;11.598;2024-01-30T12:28:24;8.73;;;2.00;;
16512;SDS011;8369;48.030;11.598;2024-01-30T12:30:55;3.00;;;1.87;;
16512;SDS011;8369;48.030;11.598;2024-01-30T12:33:26;4.13;;;1.90;;
16512;SDS011;8369;48.030;11.598;2024-01-30T12:35:53;2.77;;;1.90;;
16512;SDS011;8369;48.030;11.598;2024-01-30T12:38:19;9.67;;;2.00;;
16512;SDS011;8369;48.030;11.598;2024-01-30T12:40:45;3.90;;;2.20;;
16512;SDS011;8369;48.030;11.598;2024-01-30T12:43:13;6.03;;;1.93;;
16512;SDS011;8369;48.030;11.598;2024-01-30T12:45:41;2.67;;;2.00;;
16512;SDS011;8369;48.030;11.598;2024-01-30T12:48:07;7.17;;;2.20;;
16512;SDS011;8369;48.030;11.598;2024-01-30T12:50:37;5.83;;;1.87;;
16512;SDS011;8369;48.030;11.598;2024-01-30T12:53:06;5.53;;;1.80;;
16512;SDS011;8369;48.030;11.598;2024-01-30T12:55:35;5.63;;;2.87;;
16512;SDS011;8369;48.030;11.598;2024-01-30T12:58:02;6.20;;;2.40;;
16512;SDS011;8369;48.030;11.598;2024-01-30T13:00:28;4.63;;;2.07;;
16512;SDS011;8369;48.030;11.598;2024-01-30T13:02:54;7.77;;;2.03;;
16512;SDS011;8369;48.030;11.598;2024-01-30T13:05:21;5.77;;;2.30;;
16512;SDS011;8369;48.030;11.598;2024-01-30T13:07:48;6.67;;;2.00;;
16512;SDS011;8369;48.030;11.598;2024-01-30T13:10:15;10.70;;;2.23;;
16512;SDS011;8369;48.030;11.598;2024-01-30T13:12:41;17.53;;;3.73;;
16512;SDS011;8369;48.030;11.598;2024-01-30T13:15:08;10.80;;;4.23;;
16512;SDS011;8369;48.030;11.598;2024-01-30T13:17:36;6.47;;;3.93;;
16512;SDS011;8369;48.030;11.598;2024-01-30T13:20:03;4.67;;;2.30;;
16512;SDS011;8369;48.030;11.598;2024-01-30T13:22:30;3.77;;;2.47;;
16512;SDS011;8369;48.030;11.598;2024-01-30T13:24:57;5.38;;;2.80;;
16512;SDS011;8369;48.030;11.598;2024-01-30T13:27:24;8.80;;;3.17;;
16512;SDS011;8369;48.030;11.598;2024-01-30T13:29:50;4.90;;;2.60;;
16512;SDS011;8369;48.030;11.598;2024-01-30T13:32:16;2.60;;;2.20;;
16512;SDS011;8369;48.030;11.598;2024-01-30T13:34:42;4.67;;;1.90;;
16512;SDS011;8369;48.030;11.598;2024-01-30T13:37:08;4.70;;;3.10;;
16512;SDS011;8369;48.030;11.598;2024-01-30T13:39:35;6.07;;;2.33;;
16512;SDS011;8369;48.030;11.598;2024-01-30T13:42:01;2.60;;;1.87;;
16512;SDS011;8369;48.030;11.598;2024-01-30T13:44:28;5.83;;;2.97;;
16512;SDS011;8369;48.030;11.598;2024-01-30T13:46:54;6.20;;;3.03;;
16512;SDS011;8369;48.030;11.598;2024-01-30T13:49:20;7.33;;;2.40;;
16512;SDS011;8369;48.030;11.598;2024-01-30T13:51:47;6.53;;;2.97;;
16512;SDS011;8369;48.030;11.598;2024-01-30T13:54:13;3.13;;;2.27;;
16512;SDS011;8369;48.030;11.598;2024-01-30T13:56:40;5.60;;;2.50;;
16512;SDS011;8369;48.030;11.598;2024-01-30T13:59:06;7.20;;;2.10;;
16512;SDS011;8369;48.030;11.598;2024-01-30T14:01:33;3.73;;;2.20;;
16512;SDS011;8369;48.030;11.598;2024-01-30T14:03:59;4.33;;;2.50;;
16512;SDS011;8369;48.030;11.598;2024-01-30T14:06:25;8.73;;;2.60;;
16512;SDS011;8369;48.030;11.598;2024-01-30T14:08:52;3.77;;;2.00;;
16512;SDS011;8369;48.030;11.598;2024-01-30T14:11:19;4.93;;;2.63;;
16512;SDS011;8369;48.030;11.598;2024-01-30T14:13:45;6.20;;;2.87;;
16512;SDS011;8369;48.030;11.598;2024-01-30T14:16:11;3.03;;;2.20;;
16512;SDS011;8369;48.030;11.598;2024-01-30T14:18:37;4.97;;;2.60;;
16512;SDS011;8369;48.030;11.598;2024-01-30T14:21:03;3.23;;;2.10;;
16512;SDS011;8369;48.030;11.598;2024-01-30T14:23:29;3.70;;;2.00;;
16512;SDS011;8369;48.030;11.598;2024-01-30T14:25:56;5.60;;;2.10;;
16512;SDS011;8369;48.030;11.598;2024-01-30T14:28:25;5.70;;;2.00;;
16512;SDS011;8369;48.030;11.598;2024-01-30T14:30:54;3.47;;;2.03;;
16512;SDS011;8369;48.030;11.598;2024-01-30T14:33:21;2.57;;;1.73;;
16512;SDS011;8369;48.030;11.598;2024-01-30T14:35:47;5.50;;;1.90;;
16512;SDS011;8369;48.030;11.598;2024-01-30T14:38:13;2.83;;;1.93;;
16512;SDS011;8369;48.030;11.598;2024-01-30T14:40:39;3.90;;;1.83;;
16512;SDS011;8369;48.030;11.598;2024-01-30T14:43:07;5.93;;;2.03;;
16512;SDS011;8369;48.030;11.598;2024-01-30T14:45:33;5.17;;;1.93;;
16512;SDS011;8369;48.030;11.598;2024-01-30T14:48:00;4.57;;;2.00;;
16512;SDS011;8369;48.030;11.598;2024-01-30T14:50:27;12.50;;;2.17;;
16512;SDS011;8369;48.030;11.598;2024-01-30T14:52:53;5.53;;;1.90;;